createdAt,value
2018-03-28T00:01:47.835Z,17.90
2018-03-28T00:04:14.374Z,15.57
2018-03-28T00:06:40.801Z,15.70
2018-03-28T00:09:07.237Z,15.33
2018-03-28T00:11:33.731Z,16.10
2018-03-28T00:14:00.155Z,15.07
2018-03-28T00:16:26.630Z,15.27
2018-03-28T00:18:53.053Z,15.43
2018-03-28T00:21:19.471Z,15.20
2018-03-28T00:23:46.640Z,19.33
2018-03-28T00:26:13.065Z,17.37
2018-03-28T00:28:39.522Z,18.27
2018-03-28T00:31:06.029Z,19.97
2018-03-28T00:33:32.473Z,17.40
2018-03-28T00:35:58.898Z,16.67
2018-03-28T00:38:25.342Z,17.20
2018-03-28T00:40:51.777Z,18.37
2018-03-28T00:43:18.207Z,17.73
2018-03-28T00:45:44.636Z,18.90
2018-03-28T00:48:11.059Z,19.27
2018-03-28T00:50:37.492Z,22.50
2018-03-28T00:53:03.923Z,21.43
2018-03-28T00:55:31.112Z,25.13
2018-03-28T00:57:57.515Z,22.60
2018-03-28T01:00:23.965Z,25.83
2018-03-28T01:02:50.416Z,27.47
2018-03-28T01:05:16.955Z,27.07
2018-03-28T01:07:43.430Z,24.77
2018-03-28T01:10:09.935Z,26.23
2018-03-28T01:12:37.195Z,24.87
2018-03-28T01:15:04.461Z,24.33
2018-03-28T01:17:31.700Z,25.03
2018-03-28T01:19:58.184Z,25.50
2018-03-28T01:22:24.744Z,25.77
2018-03-28T01:24:51.247Z,27.57
2018-03-28T01:27:17.783Z,27.60
2018-03-28T01:29:45.027Z,28.47
2018-03-28T01:32:12.259Z,30.37
2018-03-28T01:34:39.537Z,31.70
2018-03-28T01:37:06.768Z,31.70
2018-03-28T01:39:33.283Z,33.07
2018-03-28T01:42:00.542Z,30.97
2018-03-28T01:44:27.069Z,31.17
2018-03-28T01:46:53.556Z,33.37
2018-03-28T01:49:20.079Z,33.70
2018-03-28T01:51:46.631Z,33.87
2018-03-28T01:54:13.156Z,31.27
2018-03-28T01:56:39.632Z,28.53
2018-03-28T01:59:06.914Z,27.93
2018-03-28T02:01:33.412Z,27.17
2018-03-28T02:03:59.934Z,29.93
2018-03-28T02:06:26.424Z,28.50
2018-03-28T02:08:52.903Z,25.93
2018-03-28T02:11:19.404Z,27.20
2018-03-28T02:13:46.698Z,25.87
2018-03-28T02:16:13.186Z,27.20
2018-03-28T02:18:40.425Z,26.83
2018-03-28T02:21:11.078Z,28.53
2018-03-28T02:23:38.314Z,28.93
2018-03-28T02:26:04.849Z,30.17
2018-03-28T02:28:31.347Z,31.03
2018-03-28T02:30:57.843Z,31.07
2018-03-28T02:33:24.372Z,31.97
2018-03-28T02:35:51.658Z,29.70
2018-03-28T02:38:18.220Z,30.57
2018-03-28T02:40:44.729Z,32.43
2018-03-28T02:43:11.219Z,31.13
2018-03-28T02:45:37.708Z,31.67
2018-03-28T02:48:04.182Z,31.27
2018-03-28T02:50:30.654Z,31.23
2018-03-28T02:52:57.162Z,30.57
2018-03-28T02:55:23.691Z,32.93
2018-03-28T02:57:50.198Z,33.03
2018-03-28T03:00:16.712Z,34.03
2018-03-28T03:02:43.210Z,30.57
2018-03-28T03:05:09.709Z,30.63
2018-03-28T03:07:36.942Z,31.87
2018-03-28T03:10:03.446Z,29.93
2018-03-28T03:12:29.961Z,31.40
2018-03-28T03:14:57.203Z,32.47
2018-03-28T03:17:23.686Z,30.93
2018-03-28T03:19:50.239Z,30.37
2018-03-28T03:22:16.758Z,31.40
2018-03-28T03:24:43.246Z,30.40
2018-03-28T03:27:10.540Z,33.20
2018-03-28T03:29:37.026Z,33.13
2018-03-28T03:32:03.503Z,30.73
2018-03-28T03:34:30.050Z,31.27
2018-03-28T03:36:56.576Z,32.17
2018-03-28T03:39:23.069Z,31.10
2018-03-28T03:41:49.606Z,30.77
2018-03-28T03:44:16.085Z,32.33
2018-03-28T03:46:42.584Z,30.43
2018-03-28T03:49:09.069Z,30.23
2018-03-28T03:51:35.550Z,30.27
2018-03-28T03:54:02.036Z,30.07
2018-03-28T03:56:28.617Z,31.07
2018-03-28T03:58:55.133Z,31.10
2018-03-28T04:01:21.621Z,31.80
2018-03-28T04:03:48.160Z,29.97
2018-03-28T04:06:14.702Z,30.90
2018-03-28T04:08:41.307Z,29.07
2018-03-28T04:11:08.593Z,29.43
2018-03-28T04:13:35.082Z,29.10
2018-03-28T04:16:01.577Z,29.87
2018-03-28T04:18:28.054Z,29.00
2018-03-28T04:20:54.566Z,27.83
2018-03-28T04:23:21.113Z,27.13
2018-03-28T04:25:47.597Z,29.20
2018-03-28T04:28:14.090Z,28.13
2018-03-28T04:30:40.634Z,28.17
2018-03-28T04:33:07.132Z,28.07
2018-03-28T04:35:33.645Z,27.57
2018-03-28T04:38:00.118Z,29.87
2018-03-28T04:40:26.668Z,28.70
2018-03-28T04:42:53.186Z,26.23
2018-03-28T04:45:19.678Z,27.67
2018-03-28T04:47:46.232Z,27.30
2018-03-28T04:50:12.787Z,27.13
2018-03-28T04:52:39.342Z,27.80
2018-03-28T04:55:05.828Z,27.57
2018-03-28T04:57:32.313Z,27.03
2018-03-28T04:59:58.934Z,27.30
2018-03-28T05:02:25.456Z,30.17
2018-03-28T05:04:51.957Z,28.73
2018-03-28T05:07:18.413Z,29.57
2018-03-28T05:09:44.942Z,30.80
2018-03-28T05:12:11.419Z,32.37
2018-03-28T05:14:37.908Z,31.03
2018-03-28T05:17:04.418Z,29.20
2018-03-28T05:19:30.979Z,29.80
2018-03-28T05:21:57.502Z,30.33
2018-03-28T05:24:24.067Z,30.37
2018-03-28T05:26:50.551Z,30.63
2018-03-28T05:29:17.086Z,31.97
2018-03-28T05:31:43.566Z,30.13
2018-03-28T05:34:10.062Z,33.40
2018-03-28T05:36:37.294Z,28.93
2018-03-28T05:39:04.816Z,29.43
2018-03-28T05:41:31.360Z,31.63
2018-03-28T05:43:57.849Z,29.03
2018-03-28T05:46:25.118Z,29.67
2018-03-28T05:48:51.624Z,29.20
2018-03-28T05:51:18.870Z,27.97
2018-03-28T05:53:45.429Z,29.60
2018-03-28T05:56:12.013Z,26.80
2018-03-28T05:58:38.488Z,26.00
2018-03-28T06:01:05.009Z,24.87
2018-03-28T06:03:31.512Z,23.43
2018-03-28T06:05:58.118Z,24.77
2018-03-28T06:08:24.654Z,23.40
2018-03-28T06:10:51.150Z,24.47
2018-03-28T06:13:17.610Z,24.10
2018-03-28T06:15:44.836Z,23.37
2018-03-28T06:18:11.341Z,22.50
2018-03-28T06:20:37.887Z,23.40
2018-03-28T06:23:05.186Z,24.97
2018-03-28T06:25:32.432Z,23.73
2018-03-28T06:27:59.652Z,23.70
2018-03-28T06:30:26.258Z,21.87
2018-03-28T06:32:52.877Z,22.30
2018-03-28T06:35:19.391Z,20.33
2018-03-28T06:37:46.642Z,20.93
2018-03-28T06:40:13.910Z,22.33
2018-03-28T06:42:41.130Z,22.03
2018-03-28T06:45:08.377Z,23.03
2018-03-28T06:47:35.588Z,21.77
2018-03-28T06:50:02.070Z,21.40
2018-03-28T06:52:28.658Z,21.67
2018-03-28T06:54:55.149Z,20.77
2018-03-28T06:57:21.675Z,22.53
2018-03-28T06:59:48.177Z,21.20
2018-03-28T07:02:14.723Z,20.73
2018-03-28T07:04:41.280Z,20.97
2018-03-28T07:07:07.787Z,20.50
2018-03-28T07:09:34.307Z,20.20
2018-03-28T07:12:00.820Z,19.47
2018-03-28T07:14:27.418Z,20.00
2018-03-28T07:16:53.888Z,19.57
2018-03-28T07:19:21.304Z,20.20
2018-03-28T07:21:47.796Z,19.27
2018-03-28T07:24:14.367Z,19.23
2018-03-28T07:26:41.024Z,21.50
2018-03-28T07:29:07.513Z,20.20
2018-03-28T07:31:34.034Z,19.70
2018-03-28T07:34:00.559Z,20.47
2018-03-28T07:36:27.783Z,19.20
2018-03-28T07:38:54.253Z,20.27
2018-03-28T07:41:21.503Z,19.73
2018-03-28T07:43:48.842Z,19.67
2018-03-28T07:46:15.302Z,18.23
2018-03-28T07:48:41.777Z,19.43
2018-03-28T07:51:08.281Z,19.53
2018-03-28T07:53:35.003Z,20.40
2018-03-28T07:56:01.482Z,20.70
2018-03-28T07:58:28.000Z,19.13
2018-03-28T08:00:54.520Z,19.63
2018-03-28T08:03:21.044Z,19.77
2018-03-28T08:05:47.537Z,20.57
2018-03-28T08:08:14.665Z,21.77
2018-03-28T08:10:41.150Z,19.03
2018-03-28T08:13:07.621Z,17.80
2018-03-28T08:15:34.112Z,19.23
2018-03-28T08:18:00.600Z,17.80
2018-03-28T08:20:27.091Z,19.20
2018-03-28T08:22:54.472Z,19.57
2018-03-28T08:25:21.020Z,18.70
2018-03-28T08:27:47.537Z,18.53
2018-03-28T08:30:14.093Z,18.10
2018-03-28T08:32:40.582Z,18.77
2018-03-28T08:35:07.817Z,18.70
2018-03-28T08:37:34.312Z,18.37
2018-03-28T08:40:00.885Z,19.20
2018-03-28T08:42:27.393Z,18.33
2018-03-28T08:44:53.899Z,17.97
2018-03-28T08:47:20.420Z,18.87
2018-03-28T08:49:47.674Z,18.23
2018-03-28T08:52:14.945Z,16.97
2018-03-28T08:54:41.498Z,17.63
2018-03-28T08:57:08.010Z,18.70
2018-03-28T08:59:34.539Z,19.70
2018-03-28T09:02:01.784Z,19.90
2018-03-28T09:04:29.002Z,19.13
2018-03-28T09:06:55.523Z,18.87
2018-03-28T09:09:22.037Z,19.67
2018-03-28T09:11:48.579Z,19.77
2018-03-28T09:14:15.080Z,18.50
2018-03-28T09:16:42.312Z,18.87
2018-03-28T09:19:08.860Z,19.27
2018-03-28T09:21:35.359Z,17.97
2018-03-28T09:24:01.851Z,19.27
2018-03-28T09:26:28.389Z,19.70
2018-03-28T09:28:54.897Z,19.67
2018-03-28T09:31:21.369Z,18.80
2018-03-28T09:33:47.882Z,20.00
2018-03-28T09:36:15.090Z,19.37
2018-03-28T09:38:41.550Z,18.87
2018-03-28T09:41:08.052Z,20.70
2018-03-28T09:43:34.558Z,19.47
2018-03-28T09:46:01.111Z,19.53
2018-03-28T09:48:27.573Z,19.17
2018-03-28T09:50:54.080Z,20.57
2018-03-28T09:53:20.566Z,20.20
2018-03-28T09:55:47.803Z,20.03
2018-03-28T09:58:14.351Z,19.67
2018-03-28T10:00:40.951Z,19.53
2018-03-28T10:03:11.509Z,19.07
2018-03-28T10:05:38.026Z,18.77
2018-03-28T10:08:04.497Z,19.03
2018-03-28T10:10:31.711Z,19.43
2018-03-28T10:12:58.184Z,19.80
2018-03-28T10:15:25.392Z,19.57
2018-03-28T10:17:52.598Z,20.83
2018-03-28T10:20:19.073Z,19.60
2018-03-28T10:22:45.549Z,19.60
2018-03-28T10:25:12.787Z,18.00
2018-03-28T10:27:39.261Z,19.43
2018-03-28T10:30:05.764Z,20.23
2018-03-28T10:32:32.264Z,20.33
2018-03-28T10:34:58.797Z,20.23
2018-03-28T10:37:25.274Z,20.87
2018-03-28T10:39:51.760Z,19.07
2018-03-28T10:42:18.315Z,20.50
2018-03-28T10:44:44.800Z,18.93
2018-03-28T10:47:12.032Z,18.73
2018-03-28T10:49:39.262Z,19.07
2018-03-28T10:52:05.780Z,18.60
2018-03-28T10:54:32.302Z,19.27
2018-03-28T10:56:58.784Z,18.63
2018-03-28T10:59:25.307Z,18.03
2018-03-28T11:01:51.805Z,18.90
2018-03-28T11:04:18.374Z,19.43
2018-03-28T11:06:44.883Z,18.10
2018-03-28T11:09:11.376Z,18.83
2018-03-28T11:11:38.623Z,18.17
2018-03-28T11:14:05.847Z,17.77
2018-03-28T11:16:32.353Z,18.63
2018-03-28T11:18:58.837Z,17.47
2018-03-28T11:21:25.308Z,17.57
2018-03-28T11:23:51.810Z,17.33
2018-03-28T11:26:19.031Z,16.27
2018-03-28T11:28:46.255Z,17.37
2018-03-28T11:31:12.735Z,16.70
2018-03-28T11:33:39.228Z,17.17
2018-03-28T11:36:05.701Z,18.47
2018-03-28T11:38:32.214Z,18.30
2018-03-28T11:40:59.423Z,17.90
2018-03-28T11:43:26.659Z,17.97
2018-03-28T11:45:53.900Z,17.20
2018-03-28T11:48:20.420Z,16.63
2018-03-28T11:50:46.979Z,17.57
2018-03-28T11:53:13.445Z,16.77
2018-03-28T11:55:39.940Z,17.27
2018-03-28T11:58:06.448Z,16.50
2018-03-28T12:00:32.937Z,17.73
2018-03-28T12:02:59.408Z,18.00
2018-03-28T12:05:25.889Z,17.07
2018-03-28T12:07:52.415Z,18.33
2018-03-28T12:10:18.905Z,17.33
2018-03-28T12:12:45.360Z,17.77
2018-03-28T12:15:11.852Z,16.83
2018-03-28T12:17:38.361Z,17.47
2018-03-28T12:20:04.860Z,18.27
2018-03-28T12:22:31.340Z,17.67
2018-03-28T12:24:58.585Z,18.23
2018-03-28T12:27:25.808Z,17.60
2018-03-28T12:29:52.304Z,17.77
2018-03-28T12:32:18.849Z,17.03
2018-03-28T12:34:45.338Z,17.10
2018-03-28T12:37:12.580Z,17.97
2018-03-28T12:39:39.080Z,18.27
2018-03-28T12:42:05.590Z,18.10
2018-03-28T12:44:32.130Z,17.70
2018-03-28T12:46:58.648Z,17.93
2018-03-28T12:49:25.867Z,17.87
2018-03-28T12:51:52.411Z,16.50
2018-03-28T12:54:18.896Z,17.77
2018-03-28T12:56:45.377Z,17.87
2018-03-28T12:59:11.868Z,18.67
2018-03-28T13:01:38.368Z,17.40
2018-03-28T13:04:05.606Z,17.70
2018-03-28T13:06:32.080Z,18.83
2018-03-28T13:08:58.612Z,18.43
2018-03-28T13:11:25.098Z,17.53
2018-03-28T13:13:53.289Z,18.53
2018-03-28T13:16:19.793Z,17.80
2018-03-28T13:18:46.254Z,18.00
2018-03-28T13:21:12.737Z,18.73
2018-03-28T13:23:39.220Z,18.77
2018-03-28T13:26:05.712Z,16.03
2018-03-28T13:28:32.208Z,18.97
2018-03-28T13:30:59.488Z,17.27
2018-03-28T13:33:25.952Z,17.43
2018-03-28T13:35:52.466Z,16.83
2018-03-28T13:38:18.945Z,16.23
2018-03-28T13:40:45.462Z,17.40
2018-03-28T13:43:11.949Z,17.03
2018-03-28T13:45:38.485Z,16.47
2018-03-28T13:48:05.692Z,15.77
2018-03-28T13:50:32.217Z,15.80
2018-03-28T13:52:58.715Z,15.67
2018-03-28T13:55:25.251Z,15.77
2018-03-28T13:57:51.743Z,16.00
2018-03-28T14:00:18.242Z,16.17
2018-03-28T14:02:44.766Z,16.57
2018-03-28T14:05:11.247Z,16.47
2018-03-28T14:07:37.729Z,16.30
2018-03-28T14:10:04.226Z,16.87
2018-03-28T14:12:30.719Z,16.17
2018-03-28T14:14:57.184Z,15.40
2018-03-28T14:17:23.654Z,16.80
2018-03-28T14:19:50.196Z,16.80
2018-03-28T14:22:16.708Z,18.67
2018-03-28T14:24:43.943Z,18.70
2018-03-28T14:27:10.467Z,20.10
2018-03-28T14:29:37.676Z,18.43
2018-03-28T14:32:04.140Z,19.43
2018-03-28T14:34:30.705Z,19.67
2018-03-28T14:36:57.178Z,18.93
2018-03-28T14:39:23.692Z,19.63
2018-03-28T14:41:51.064Z,18.67
2018-03-28T14:44:17.586Z,18.77
2018-03-28T14:46:44.825Z,19.80
2018-03-28T14:49:11.333Z,21.47
2018-03-28T14:51:37.855Z,21.20
2018-03-28T14:54:04.338Z,21.40
2018-03-28T14:56:32.025Z,21.33
2018-03-28T14:58:58.528Z,20.37
2018-03-28T15:01:25.771Z,20.93
2018-03-28T15:03:52.313Z,19.50
2018-03-28T15:06:18.833Z,19.20
2018-03-28T15:08:45.324Z,21.03
2018-03-28T15:11:11.845Z,19.50
2018-03-28T15:13:39.111Z,20.30
2018-03-28T15:16:05.616Z,18.87
2018-03-28T15:18:32.845Z,19.47
2018-03-28T15:20:59.347Z,19.60
2018-03-28T15:23:25.845Z,21.43
2018-03-28T15:25:53.061Z,19.70
2018-03-28T15:28:20.292Z,19.70
2018-03-28T15:30:46.833Z,19.67
2018-03-28T15:33:13.312Z,18.87
2018-03-28T15:35:39.765Z,19.03
2018-03-28T15:38:06.271Z,20.07
2018-03-28T15:40:32.736Z,19.17
2018-03-28T15:42:59.210Z,18.90
2018-03-28T15:45:25.703Z,19.43
2018-03-28T15:47:52.185Z,19.17
2018-03-28T15:50:18.701Z,19.10
2018-03-28T15:52:45.190Z,18.67
2018-03-28T15:55:12.427Z,21.23
2018-03-28T15:57:38.926Z,19.77
2018-03-28T16:00:05.418Z,19.77
2018-03-28T16:02:32.653Z,19.87
2018-03-28T16:04:59.157Z,18.50
2018-03-28T16:07:25.738Z,18.23
2018-03-28T16:09:52.970Z,19.33
2018-03-28T16:12:22.111Z,20.20
2018-03-28T16:14:48.588Z,20.50
2018-03-28T16:17:15.066Z,19.13
2018-03-28T16:19:41.639Z,21.20
2018-03-28T16:22:08.137Z,20.03
2018-03-28T16:24:34.699Z,19.20
2018-03-28T16:27:01.194Z,19.67
2018-03-28T16:29:28.421Z,20.50
2018-03-28T16:31:54.905Z,20.00
2018-03-28T16:34:21.376Z,20.17
2018-03-28T16:36:48.729Z,20.17
2018-03-28T16:39:15.215Z,20.47
2018-03-28T16:41:41.738Z,20.87
2018-03-28T16:44:08.288Z,20.50
2018-03-28T16:46:34.799Z,20.33
2018-03-28T16:49:01.266Z,21.00
2018-03-28T16:51:27.758Z,19.83
2018-03-28T16:53:54.273Z,19.37
2018-03-28T16:56:21.499Z,20.13
2018-03-28T16:58:47.995Z,18.93
2018-03-28T17:01:14.601Z,19.33
2018-03-28T17:03:41.098Z,20.23
2018-03-28T17:06:07.617Z,20.70
2018-03-28T17:08:34.142Z,20.37
2018-03-28T17:11:01.418Z,21.00
2018-03-28T17:13:27.906Z,21.63
2018-03-28T17:15:54.417Z,21.37
2018-03-28T17:18:20.883Z,20.03
2018-03-28T17:20:47.387Z,20.70
2018-03-28T17:23:13.923Z,21.47
2018-03-28T17:25:40.451Z,19.73
2018-03-28T17:28:07.761Z,20.77
2018-03-28T17:30:35.000Z,20.83
2018-03-28T17:33:02.502Z,21.20
2018-03-28T17:35:29.010Z,22.07
2018-03-28T17:37:56.281Z,22.40
2018-03-28T17:40:22.787Z,21.90
2018-03-28T17:42:49.297Z,21.20
2018-03-28T17:45:15.775Z,21.80
2018-03-28T17:47:43.019Z,22.33
2018-03-28T17:50:09.508Z,22.40
2018-03-28T17:52:35.995Z,21.97
2018-03-28T17:55:03.234Z,22.43
2018-03-28T17:57:29.727Z,23.57
2018-03-28T17:59:56.883Z,23.40
2018-03-28T18:02:23.387Z,23.60
2018-03-28T18:04:49.862Z,23.33
2018-03-28T18:07:16.352Z,23.27
2018-03-28T18:09:42.838Z,24.37
2018-03-28T18:12:09.381Z,27.60
2018-03-28T18:14:35.877Z,26.40
2018-03-28T18:17:02.381Z,25.47
2018-03-28T18:19:29.306Z,25.80
2018-03-28T18:21:55.818Z,26.53
2018-03-28T18:24:22.351Z,25.17
2018-03-28T18:26:48.898Z,26.13
2018-03-28T18:29:15.418Z,24.17
2018-03-28T18:31:41.939Z,24.97
2018-03-28T18:34:08.458Z,25.77
2018-03-28T18:36:34.973Z,24.80
2018-03-28T18:39:02.311Z,24.67
2018-03-28T18:41:28.867Z,24.87
2018-03-28T18:43:56.169Z,23.77
2018-03-28T18:46:22.818Z,23.70
2018-03-28T18:48:49.322Z,25.03
2018-03-28T18:51:15.802Z,23.40
2018-03-28T18:53:42.385Z,25.00
2018-03-28T18:56:08.926Z,25.97
2018-03-28T18:58:35.414Z,26.50
2018-03-28T19:01:01.931Z,26.20
2018-03-28T19:03:28.520Z,27.80
2018-03-28T19:05:55.030Z,25.57
2018-03-28T19:08:21.520Z,28.47
2018-03-28T19:10:48.012Z,29.60
2018-03-28T19:13:15.222Z,28.00
2018-03-28T19:15:41.713Z,27.50
2018-03-28T19:18:08.226Z,28.27
2018-03-28T19:20:34.706Z,27.63
2018-03-28T19:23:01.216Z,27.27
2018-03-28T19:25:27.742Z,30.73
2018-03-28T19:27:54.360Z,27.57
2018-03-28T19:30:20.921Z,28.13
2018-03-28T19:32:48.131Z,30.63
2018-03-28T19:35:14.612Z,37.67
2018-03-28T19:37:41.128Z,40.60
2018-03-28T19:40:07.652Z,38.27
2018-03-28T19:42:35.174Z,36.80
2018-03-28T19:45:01.685Z,29.30
2018-03-28T19:47:28.217Z,28.90
2018-03-28T19:49:54.687Z,27.77
2018-03-28T19:52:21.166Z,28.27
2018-03-28T19:54:48.374Z,28.90
2018-03-28T19:57:14.872Z,28.70
2018-03-28T19:59:41.378Z,29.00
2018-03-28T20:02:07.858Z,29.53
2018-03-28T20:04:34.492Z,29.40
2018-03-28T20:07:00.971Z,28.77
2018-03-28T20:09:27.500Z,29.63
2018-03-28T20:12:03.193Z,29.83
2018-03-28T20:14:29.895Z,28.57
2018-03-28T20:16:56.557Z,30.33
2018-03-28T20:19:24.146Z,27.57
2018-03-28T20:21:50.640Z,27.93
2018-03-28T20:24:17.238Z,27.63
2018-03-28T20:26:46.408Z,28.33
2018-03-28T20:29:13.301Z,31.20
2018-03-28T20:31:39.948Z,32.93
2018-03-28T20:34:10.985Z,30.13
2018-03-28T20:36:39.271Z,27.83
2018-03-28T20:39:05.870Z,29.73
2018-03-28T20:41:32.520Z,28.97
2018-03-28T20:44:00.005Z,30.23
2018-03-28T20:46:26.504Z,30.33
2018-03-28T20:48:53.084Z,28.83
2018-03-28T20:51:19.547Z,27.17
2018-03-28T20:53:46.074Z,27.53
2018-03-28T20:56:12.603Z,27.47
2018-03-28T20:58:39.156Z,27.90
2018-03-28T21:01:05.649Z,27.10
2018-03-28T21:03:32.138Z,26.20
2018-03-28T21:05:58.634Z,26.50
2018-03-28T21:08:25.888Z,26.07
2018-03-28T21:10:53.139Z,26.10
2018-03-28T21:13:19.645Z,25.23
2018-03-28T21:15:46.190Z,24.73
2018-03-28T21:18:12.713Z,26.17
2018-03-28T21:20:39.266Z,25.67
2018-03-28T21:23:05.874Z,26.83
2018-03-28T21:25:32.417Z,27.20
2018-03-28T21:27:58.906Z,26.50
2018-03-28T21:30:26.211Z,26.87
2018-03-28T21:32:52.778Z,25.83
2018-03-28T21:35:19.318Z,27.23
2018-03-28T21:37:45.801Z,27.70
2018-03-28T21:40:12.309Z,27.93
2018-03-28T21:42:38.815Z,27.40
2018-03-28T21:45:06.117Z,28.20
2018-03-28T21:47:32.630Z,26.20
2018-03-28T21:49:59.667Z,25.73
2018-03-28T21:52:26.896Z,27.97
2018-03-28T21:54:53.395Z,28.43
2018-03-28T21:57:19.945Z,27.23
2018-03-28T21:59:46.449Z,27.80
2018-03-28T22:02:13.066Z,25.97
2018-03-28T22:04:40.311Z,26.50
2018-03-28T22:07:07.588Z,26.07
2018-03-28T22:09:34.828Z,27.27
2018-03-28T22:12:02.177Z,26.83
2018-03-28T22:14:28.705Z,24.53
2018-03-28T22:16:55.970Z,25.73
2018-03-28T22:19:23.206Z,25.60
2018-03-28T22:21:50.415Z,25.53
2018-03-28T22:24:16.939Z,26.97
2018-03-28T22:26:43.465Z,24.80
2018-03-28T22:29:09.951Z,25.23
2018-03-28T22:31:36.442Z,23.57
2018-03-28T22:34:03.035Z,26.40
2018-03-28T22:36:30.324Z,24.43
2018-03-28T22:38:56.904Z,25.27
2018-03-28T22:41:23.410Z,24.97
2018-03-28T22:43:49.896Z,25.03
2018-03-28T22:46:16.383Z,36.63
2018-03-28T22:48:42.954Z,35.23
2018-03-28T22:51:09.448Z,25.63
2018-03-28T22:53:35.933Z,25.53
2018-03-28T22:56:02.440Z,26.07
2018-03-28T22:58:28.946Z,25.67
2018-03-28T23:00:55.415Z,25.13
2018-03-28T23:03:21.908Z,26.63
2018-03-28T23:05:48.422Z,25.63
2018-03-28T23:08:14.923Z,26.17
2018-03-28T23:10:41.411Z,25.23
2018-03-28T23:13:07.893Z,25.57
2018-03-28T23:15:34.446Z,25.17
2018-03-28T23:18:00.968Z,25.67
2018-03-28T23:20:27.447Z,27.83
2018-03-28T23:22:53.950Z,27.90
2018-03-28T23:25:21.249Z,25.50
2018-03-28T23:27:47.810Z,25.63
2018-03-28T23:30:14.282Z,24.87
2018-03-28T23:32:41.541Z,24.73
2018-03-28T23:35:08.775Z,27.53
2018-03-28T23:37:35.269Z,24.27
2018-03-28T23:40:01.754Z,26.33
2018-03-28T23:42:28.312Z,27.53
2018-03-28T23:44:54.864Z,27.07
2018-03-28T23:47:21.375Z,28.03
2018-03-28T23:49:48.678Z,28.27
2018-03-28T23:52:15.183Z,27.67
2018-03-28T23:54:41.695Z,27.07
2018-03-28T23:57:08.970Z,28.63
2018-03-28T23:59:35.487Z,27.90
